Time;durP1;ratioP1;P1;durP2;ratioP2;P2;SDS_P1;SDS_P2;PMS_P1;PMS_P2;Temp;Humidity;BMP_temperature;BMP_pressure;BME280_temperature;BME280_humidity;BME280_pressure;Samples;Min_cycle;Max_cycle;Signal;HPM_P1;HPM_P2
2022/01/07 00:02:57;;;;;;;6.15;2.97;;;3.70;99.90;;;;;;5020300;28;20555;-82
2022/01/07 00:05:24;;;;;;;7.72;3.00;;;4.10;99.90;;;;;;5018934;28;20104;-82
2022/01/07 00:07:50;;;;;;;9.40;2.90;;;3.10;99.90;;;;;;5023613;28;20046;-83
2022/01/07 00:10:18;;;;;;;12.00;3.70;;;4.50;99.90;;;;;;5023978;28;20037;-82
2022/01/07 00:12:44;;;;;;;11.60;3.58;;;4.30;99.90;;;;;;5005022;28;20057;-83
2022/01/07 00:15:11;;;;;;;7.95;2.83;;;3.60;99.90;;;;;;5005264;28;20053;-82
2022/01/07 00:17:37;;;;;;;10.38;3.30;;;3.70;99.90;;;;;;5024128;28;20299;-82
2022/01/07 00:20:05;;;;;;;7.97;2.92;;;3.70;99.90;;;;;;5020432;28;20128;-82
2022/01/07 00:22:31;;;;;;;8.05;2.50;;;3.70;99.90;;;;;;5020167;28;20042;-83
2022/01/07 00:24:57;;;;;;;11.85;3.33;;;4.50;99.90;;;;;;5024215;28;20049;-82
2022/01/07 00:27:23;;;;;;;8.07;3.20;;;3.70;99.90;;;;;;5023356;28;20045;-83
2022/01/07 00:29:48;;;;;;;8.95;2.70;;;4.80;99.90;;;;;;5015630;28;20093;-82
2022/01/07 00:32:14;;;;;;;8.80;3.10;;;4.10;99.90;;;;;;5008338;28;20053;-82
2022/01/07 00:34:40;;;;;;;12.05;3.00;;;3.70;99.90;;;;;;5009208;28;20052;-82
2022/01/07 00:37:05;;;;;;;10.52;2.90;;;3.70;99.90;;;;;;5023689;28;20041;-82
2022/01/07 00:39:31;;;;;;;14.05;2.97;;;3.60;99.90;;;;;;5023350;28;20125;-82
2022/01/07 00:41:57;;;;;;;7.82;2.53;;;3.60;99.90;;;;;;5020908;28;20050;-82
2022/01/07 00:44:22;;;;;;;7.75;2.58;;;4.30;99.90;;;;;;5008184;28;20096;-83
2022/01/07 00:46:48;;;;;;;14.73;3.85;;;3.50;99.90;;;;;;5021284;28;20395;-82
2022/01/07 00:49:20;;;;;;;9.80;2.92;;;3.40;99.90;;;;;;5021943;28;20450;-83
2022/01/07 00:51:47;;;;;;;10.88;3.30;;;3.40;99.90;;;;;;5011066;28;20041;-82
2022/01/07 00:54:13;;;;;;;10.60;3.67;;;3.40;99.90;;;;;;5027563;28;20045;-82
2022/01/07 00:56:39;;;;;;;9.40;3.58;;;3.50;99.90;;;;;;5009154;28;20096;-83
2022/01/07 00:59:04;;;;;;;15.63;3.72;;;3.80;99.90;;;;;;5023669;28;20065;-82
2022/01/07 01:01:30;;;;;;;8.23;3.17;;;3.40;99.90;;;;;;5024094;28;20042;-82
2022/01/07 01:03:56;;;;;;;7.78;2.80;;;3.40;99.90;;;;;;5030526;28;20053;-82
2022/01/07 01:06:21;;;;;;;9.30;3.80;;;3.30;99.90;;;;;;5022964;28;20053;-82
2022/01/07 01:08:47;;;;;;;12.80;4.00;;;3.90;99.90;;;;;;5023507;28;20053;-83
2022/01/07 01:11:12;;;;;;;12.50;3.33;;;4.30;99.90;;;;;;5025387;28;20065;-82
2022/01/07 01:13:38;;;;;;;13.50;4.28;;;3.30;99.90;;;;;;5026447;28;20488;-82
2022/01/07 01:16:04;;;;;;;11.23;3.75;;;3.40;99.90;;;;;;5023583;28;20053;-82
2022/01/07 01:18:30;;;;;;;8.65;3.70;;;3.20;99.90;;;;;;5022820;28;20061;-83
2022/01/07 01:20:56;;;;;;;9.88;3.28;;;3.20;99.90;;;;;;5023075;28;20077;-82
2022/01/07 01:23:21;;;;;;;10.18;3.70;;;3.20;99.90;;;;;;5028906;28;20042;-83
2022/01/07 01:25:48;;;;;;;7.88;3.72;;;4.00;99.90;;;;;;5022573;28;20053;-82
2022/01/07 01:28:14;;;;;;;8.45;3.55;;;3.20;99.90;;;;;;5022718;28;20057;-83
2022/01/07 01:30:39;;;;;;;7.80;3.20;;;3.10;99.90;;;;;;5022898;28;20037;-83
2022/01/07 01:33:05;;;;;;;10.35;3.47;;;3.10;99.90;;;;;;4994701;28;20092;-83
2022/01/07 01:35:31;;;;;;;6.93;3.28;;;3.10;99.90;;;;;;5022862;28;20048;-82
2022/01/07 01:37:57;;;;;;;6.40;2.83;;;3.60;99.90;;;;;;5023263;28;20451;-82
2022/01/07 01:40:23;;;;;;;11.27;3.80;;;3.10;99.90;;;;;;5008625;28;20041;-83
2022/01/07 01:42:54;;;;;;;8.77;4.20;;;3.80;99.90;;;;;;5007920;28;20392;-81
2022/01/07 01:45:21;;;;;;;10.15;4.18;;;3.00;99.90;;;;;;5022520;28;20038;-82
2022/01/07 01:47:47;;;;;;;10.73;4.03;;;3.00;99.90;;;;;;5027550;28;20427;-82
2022/01/07 01:50:14;;;;;;;7.68;3.88;;;3.00;99.90;;;;;;5025725;28;20073;-82
2022/01/07 01:52:44;;;;;;;9.48;3.30;;;2.90;99.90;;;;;;5026182;28;20082;-83
2022/01/07 01:55:10;;;;;;;8.00;3.42;;;2.90;99.90;;;;;;5004215;28;20049;-82
2022/01/07 01:57:36;;;;;;;6.47;3.22;;;2.90;99.90;;;;;;5024167;28;20045;-82
2022/01/07 02:00:09;;;;;;;7.50;3.38;;;2.80;99.90;;;;;;5024583;28;20041;-82
2022/01/07 02:02:35;;;;;;;8.13;3.63;;;2.80;99.90;;;;;;5022163;28;20130;-82
2022/01/07 02:05:00;;;;;;;11.88;3.50;;;3.70;99.90;;;;;;5022718;28;20053;-82
2022/01/07 02:07:27;;;;;;;8.43;2.78;;;2.50;99.90;;;;;;5025237;28;20120;-81
2022/01/07 02:09:54;;;;;;;8.98;3.67;;;2.80;99.90;;;;;;5007756;28;20037;-82
2022/01/07 02:12:20;;;;;;;7.43;3.75;;;2.80;99.90;;;;;;5028410;28;20043;-83
2022/01/07 02:14:55;;;;;;;10.43;3.67;;;3.50;99.90;;;;;;5027489;28;20042;-82
2022/01/07 02:17:22;;;;;;;7.95;3.83;;;2.80;99.90;;;;;;5022566;28;20033;-82
2022/01/07 02:19:49;;;;;;;8.75;3.78;;;2.80;99.90;;;;;;5021936;28;20033;-82
2022/01/07 02:22:17;;;;;;;9.88;3.75;;;2.70;99.90;;;;;;5025011;28;20041;-82
2022/01/07 02:24:44;;;;;;;10.88;3.58;;;3.00;99.90;;;;;;5026269;28;20041;-82
2022/01/07 02:27:12;;;;;;;7.00;2.85;;;2.70;99.90;;;;;;5023719;28;20038;-82
2022/01/07 02:29:38;;;;;;;8.23;3.45;;;3.30;99.90;;;;;;5024789;28;20037;-82
2022/01/07 02:32:04;;;;;;;8.38;3.33;;;2.60;99.90;;;;;;5006401;28;20545;-82
2022/01/07 02:34:30;;;;;;;9.32;3.83;;;2.60;99.90;;;;;;5022780;28;20099;-82
2022/01/07 02:36:55;;;;;;;8.98;3.75;;;2.60;99.90;;;;;;5024693;28;20033;-82
2022/01/07 02:39:21;;;;;;;10.27;3.55;;;2.80;99.90;;;;;;5022848;28;20049;-81
2022/01/07 02:41:47;;;;;;;7.05;3.20;;;2.50;99.90;;;;;;5021479;28;20041;-82
2022/01/07 02:44:13;;;;;;;6.28;3.42;;;3.50;99.90;;;;;;5021367;28;20496;-81
2022/01/07 02:46:39;;;;;;;10.40;3.53;;;3.10;99.90;;;;;;5022737;28;20073;-82
2022/01/07 02:49:12;;;;;;;9.32;3.42;;;3.10;99.90;;;;;;5021599;28;20037;-81
2022/01/07 02:51:38;;;;;;;6.35;3.60;;;2.70;99.90;;;;;;5021819;28;20085;-82
2022/01/07 02:54:06;;;;;;;10.35;3.42;;;2.80;99.90;;;;;;5003223;28;20558;-82
2022/01/07 02:56:32;;;;;;;6.95;3.75;;;2.80;99.90;;;;;;5019153;28;20049;-82
2022/01/07 02:58:57;;;;;;;6.75;4.07;;;2.80;99.90;;;;;;5024505;28;20151;-81
2022/01/07 03:01:23;;;;;;;8.73;3.85;;;2.80;99.90;;;;;;5022714;28;20057;-82
2022/01/07 03:03:49;;;;;;;8.15;3.42;;;2.90;99.90;;;;;;5021125;28;20049;-81
2022/01/07 03:06:15;;;;;;;9.00;4.78;;;2.80;99.90;;;;;;5024755;28;20563;-81
2022/01/07 03:08:40;;;;;;;16.10;4.03;;;2.80;99.90;;;;;;5023421;28;20538;-81
2022/01/07 03:11:06;;;;;;;8.43;4.45;;;2.80;99.90;;;;;;5024260;28;20451;-80
2022/01/07 03:13:32;;;;;;;6.35;4.40;;;2.80;99.90;;;;;;5020971;28;20064;-81
2022/01/07 03:15:57;;;;;;;8.38;3.90;;;2.80;99.90;;;;;;5019874;28;20038;-81
2022/01/07 03:18:23;;;;;;;10.93;4.45;;;2.80;99.90;;;;;;5020448;28;20104;-81
2022/01/07 03:20:48;;;;;;;8.63;3.67;;;2.80;99.90;;;;;;5027315;28;20052;-82
2022/01/07 03:23:14;;;;;;;8.52;4.20;;;2.80;99.90;;;;;;5003524;28;20128;-81
2022/01/07 03:25:44;;;;;;;9.23;4.05;;;2.80;99.90;;;;;;5023547;28;20068;-81
2022/01/07 03:28:10;;;;;;;9.90;4.10;;;2.90;99.90;;;;;;5024174;28;20041;-82
2022/01/07 03:30:36;;;;;;;6.28;3.67;;;3.70;99.90;;;;;;5023765;28;20042;-83
2022/01/07 03:33:04;;;;;;;9.65;3.80;;;2.70;99.90;;;;;;5024059;28;20088;-82
2022/01/07 03:35:29;;;;;;;10.15;4.35;;;2.70;99.90;;;;;;5004175;28;20133;-82
2022/01/07 03:37:55;;;;;;;8.27;4.18;;;2.70;99.90;;;;;;5020584;28;20112;-82
2022/01/07 03:40:21;;;;;;;7.28;3.60;;;2.70;99.90;;;;;;5024004;28;20037;-82
2022/01/07 03:42:48;;;;;;;7.80;4.10;;;2.70;99.90;;;;;;5023063;28;20038;-82
2022/01/07 03:45:14;;;;;;;7.53;4.32;;;2.70;99.90;;;;;;5004759;28;20045;-83
2022/01/07 03:47:40;;;;;;;8.25;4.93;;;2.70;99.90;;;;;;5023179;28;20052;-82
2022/01/07 03:50:08;;;;;;;7.70;4.75;;;2.80;99.90;;;;;;5023632;28;20542;-81
2022/01/07 03:52:35;;;;;;;7.43;5.15;;;2.70;99.90;;;;;;5023056;28;20041;-82
2022/01/07 03:55:01;;;;;;;6.97;4.75;;;2.70;99.90;;;;;;5005419;28;20041;-83
2022/01/07 03:57:26;;;;;;;13.77;5.25;;;2.70;99.90;;;;;;5018654;28;20092;-83
2022/01/07 03:59:52;;;;;;;9.98;4.78;;;3.30;99.90;;;;;;5022905;28;20050;-83
2022/01/07 04:02:18;;;;;;;11.40;5.47;;;2.80;99.90;;;;;;5024127;28;20046;-82
2022/01/07 04:04:45;;;;;;;8.32;5.35;;;3.30;99.90;;;;;;5021319;28;20034;-82
2022/01/07 04:07:11;;;;;;;9.40;5.05;;;3.10;99.90;;;;;;4983117;28;20101;-82
2022/01/07 04:09:37;;;;;;;8.32;5.35;;;2.80;99.90;;;;;;5001428;28;20046;-82
2022/01/07 04:12:03;;;;;;;8.30;5.18;;;2.80;99.90;;;;;;5010349;28;20465;-83
2022/01/07 04:14:29;;;;;;;9.30;5.32;;;2.90;99.90;;;;;;5003076;28;20370;-82
2022/01/07 04:16:55;;;;;;;10.05;5.35;;;2.90;99.90;;;;;;4986088;28;20050;-82
2022/01/07 04:19:22;;;;;;;8.15;5.03;;;3.40;99.90;;;;;;4986524;28;20042;-81
2022/01/07 04:21:49;;;;;;;11.00;5.50;;;2.90;99.90;;;;;;5002314;28;20038;-82
2022/01/07 04:24:16;;;;;;;9.95;5.57;;;3.00;99.90;;;;;;5006416;28;20042;-83
2022/01/07 04:26:42;;;;;;;9.57;4.78;;;3.00;99.90;;;;;;5006558;28;20048;-81
2022/01/07 04:29:07;;;;;;;7.72;4.82;;;3.40;99.90;;;;;;4989716;28;20488;-82
2022/01/07 04:31:33;;;;;;;7.78;5.13;;;3.30;99.90;;;;;;4991855;28;20042;-82
2022/01/07 04:33:59;;;;;;;8.77;5.10;;;3.80;99.90;;;;;;5005979;28;20050;-81
2022/01/07 04:36:24;;;;;;;9.73;5.20;;;3.20;99.90;;;;;;5007223;28;20112;-82
2022/01/07 04:38:50;;;;;;;8.93;4.93;;;2.90;99.90;;;;;;5006347;28;20125;-83
2022/01/07 04:41:16;;;;;;;9.88;4.55;;;3.00;99.90;;;;;;5007405;28;20058;-82
2022/01/07 04:43:41;;;;;;;7.90;4.90;;;2.90;99.90;;;;;;4989748;28;20045;-82
2022/01/07 04:46:07;;;;;;;7.38;4.90;;;2.80;99.90;;;;;;5004486;28;20066;-82
2022/01/07 04:48:33;;;;;;;9.82;5.00;;;3.00;99.90;;;;;;5008533;28;20072;-81
2022/01/07 04:50:58;;;;;;;7.32;4.57;;;2.90;99.90;;;;;;5005539;28;20448;-82
2022/01/07 04:53:26;;;;;;;9.40;4.85;;;2.90;99.90;;;;;;5010155;28;20042;-82
2022/01/07 04:55:53;;;;;;;7.93;4.15;;;2.90;99.90;;;;;;4986549;28;20129;-82
2022/01/07 04:58:19;;;;;;;14.30;5.15;;;2.90;99.90;;;;;;5006791;28;20046;-82
2022/01/07 05:00:45;;;;;;;8.05;5.13;;;2.90;99.90;;;;;;5007059;28;20484;-81
2022/01/07 05:03:12;;;;;;;9.95;5.40;;;2.90;99.90;;;;;;4989483;28;20081;-82
2022/01/07 05:05:39;;;;;;;9.05;5.20;;;3.00;99.90;;;;;;5015293;28;20455;-82
2022/01/07 05:08:05;;;;;;;8.45;5.70;;;3.30;99.90;;;;;;5024823;28;20124;-82
2022/01/07 05:10:31;;;;;;;9.25;4.90;;;3.90;99.90;;;;;;5026336;28;20121;-83
2022/01/07 05:12:57;;;;;;;11.23;5.85;;;3.00;99.90;;;;;;5007642;28;20050;-83
2022/01/07 05:15:23;;;;;;;10.35;5.30;;;3.10;99.90;;;;;;5026556;28;20384;-83
2022/01/07 05:17:50;;;;;;;10.32;5.68;;;3.60;99.90;;;;;;5006887;28;20057;-83
2022/01/07 05:20:17;;;;;;;9.57;5.75;;;3.00;99.90;;;;;;5026363;28;20045;-83
2022/01/07 05:22:43;;;;;;;10.63;5.47;;;3.10;99.90;;;;;;5026792;28;20124;-82
2022/01/07 05:25:11;;;;;;;8.25;5.45;;;3.60;99.90;;;;;;5024482;28;20081;-82
2022/01/07 05:27:37;;;;;;;8.35;5.28;;;3.10;99.90;;;;;;5022860;28;20054;-83
2022/01/07 05:30:05;;;;;;;11.02;5.28;;;3.60;99.90;;;;;;5026281;28;20037;-82
2022/01/07 05:32:31;;;;;;;6.57;5.05;;;3.30;99.90;;;;;;5021614;28;20037;-82
2022/01/07 05:34:56;;;;;;;8.70;5.20;;;3.60;99.90;;;;;;5021543;28;20476;-82
2022/01/07 05:37:22;;;;;;;10.45;5.55;;;3.20;99.90;;;;;;5025476;28;20116;-83
2022/01/07 05:39:48;;;;;;;8.65;5.43;;;3.60;99.90;;;;;;5025909;28;20117;-82
2022/01/07 05:42:14;;;;;;;8.02;5.38;;;3.30;99.90;;;;;;5022569;28;20408;-82
2022/01/07 05:44:39;;;;;;;13.95;5.68;;;3.30;99.90;;;;;;5004904;28;20124;-81
2022/01/07 05:47:05;;;;;;;14.25;6.47;;;3.30;99.90;;;;;;5004851;28;20041;-82
2022/01/07 05:49:31;;;;;;;9.13;5.75;;;3.30;99.90;;;;;;5022374;28;20038;-83
2022/01/07 05:51:57;;;;;;;9.00;5.40;;;4.00;99.90;;;;;;5024916;28;20529;-83
2022/01/07 05:54:22;;;;;;;10.18;5.72;;;4.00;99.90;;;;;;5025351;28;20052;-83
2022/01/07 05:56:48;;;;;;;10.63;5.18;;;3.50;99.90;;;;;;5007931;28;20041;-83
2022/01/07 05:59:14;;;;;;;15.05;5.93;;;3.40;99.90;;;;;;5007429;28;20412;-82
2022/01/07 06:01:40;;;;;;;10.20;6.18;;;3.40;99.90;;;;;;5024368;28;20045;-83
2022/01/07 06:04:05;;;;;;;8.23;5.28;;;3.60;99.90;;;;;;5025588;28;20041;-83
2022/01/07 06:06:31;;;;;;;8.75;5.88;;;3.80;99.90;;;;;;5021576;28;20088;-82
2022/01/07 06:08:57;;;;;;;10.73;6.07;;;3.30;99.90;;;;;;5004524;28;20057;-83
2022/01/07 06:11:22;;;;;;;11.02;5.85;;;4.10;99.90;;;;;;5023388;28;20034;-82
2022/01/07 06:13:48;;;;;;;12.30;5.50;;;3.90;99.90;;;;;;5025110;28;20118;-83
2022/01/07 06:16:13;;;;;;;9.27;4.93;;;3.40;99.90;;;;;;5007702;28;20143;-82
2022/01/07 06:19:12;;;;;;;10.38;5.55;;;3.60;99.90;;;;;;5021919;28;20038;-82
2022/01/07 06:21:31;;;;;;;11.20;5.57;;;3.40;99.90;;;;;;5001692;28;20057;-82
2022/01/07 06:23:57;;;;;;;14.77;6.95;;;3.40;99.90;;;;;;5024949;28;20037;-83
2022/01/07 06:26:22;;;;;;;10.93;5.70;;;4.20;99.90;;;;;;5023948;28;20044;-83
2022/01/07 06:28:48;;;;;;;12.73;6.10;;;3.80;99.90;;;;;;5024293;28;20058;-83
2022/01/07 06:31:14;;;;;;;9.23;5.55;;;4.20;99.90;;;;;;5024835;28;20073;-83
2022/01/07 06:33:39;;;;;;;12.05;5.88;;;3.50;99.90;;;;;;5024401;28;20456;-81
2022/01/07 06:36:05;;;;;;;10.70;5.25;;;3.60;99.90;;;;;;5021672;28;20038;-82
2022/01/07 06:38:31;;;;;;;6.65;4.85;;;3.40;99.90;;;;;;5024133;28;20039;-83
2022/01/07 06:40:57;;;;;;;10.10;4.95;;;3.40;99.90;;;;;;5022063;28;20060;-82
2022/01/07 06:43:22;;;;;;;8.63;5.13;;;3.40;99.90;;;;;;5008055;28;20079;-81
2022/01/07 06:45:48;;;;;;;7.07;4.93;;;3.40;99.90;;;;;;5023409;28;20575;-82
2022/01/07 06:48:14;;;;;;;8.15;4.95;;;3.90;99.90;;;;;;5024990;28;20411;-81
2022/01/07 06:50:41;;;;;;;14.25;5.53;;;3.40;99.90;;;;;;5024600;28;20052;-83
2022/01/07 06:53:07;;;;;;;8.02;4.75;;;3.80;99.90;;;;;;5003443;28;20053;-83
2022/01/07 06:55:33;;;;;;;6.72;4.78;;;3.50;99.90;;;;;;5021296;28;20046;-82
2022/01/07 06:57:58;;;;;;;10.75;5.20;;;3.50;99.90;;;;;;5021122;28;20052;-83
2022/01/07 07:00:24;;;;;;;9.57;5.40;;;4.30;99.90;;;;;;5024434;28;20048;-83
2022/01/07 07:02:50;;;;;;;10.43;6.35;;;3.50;99.90;;;;;;5028094;28;20045;-83
2022/01/07 07:05:17;;;;;;;7.10;4.78;;;4.30;99.90;;;;;;5023488;28;20058;-83
2022/01/07 07:07:43;;;;;;;6.95;4.40;;;3.70;99.90;;;;;;5024185;28;20554;-83
2022/01/07 07:10:08;;;;;;;8.50;5.40;;;4.30;99.90;;;;;;5023859;28;20128;-83
2022/01/07 07:12:34;;;;;;;7.85;5.10;;;3.50;99.90;;;;;;5022617;28;20047;-83
2022/01/07 07:15:00;;;;;;;8.20;5.30;;;3.40;99.90;;;;;;5024080;28;20112;-84
2022/01/07 07:17:26;;;;;;;10.95;5.35;;;3.70;99.90;;;;;;5023344;28;20518;-83
2022/01/07 07:19:51;;;;;;;10.05;6.43;;;3.50;99.90;;;;;;5020927;28;20034;-84
2022/01/07 07:22:17;;;;;;;6.60;5.13;;;3.80;99.90;;;;;;5026911;28;20434;-84
2022/01/07 07:24:43;;;;;;;8.43;5.00;;;3.50;99.90;;;;;;5003114;28;20073;-83
2022/01/07 07:27:08;;;;;;;8.00;5.32;;;3.50;99.90;;;;;;5002944;28;20045;-83
2022/01/07 07:29:34;;;;;;;11.57;6.22;;;3.30;99.90;;;;;;5021406;28;20050;-82
2022/01/07 07:32:04;;;;;;;8.75;5.75;;;3.60;99.90;;;;;;5022700;28;20504;-84
2022/01/07 07:36:59;;;;;;;7.30;5.60;;;3.60;99.90;;;;;;5022832;28;20049;-85
2022/01/07 07:39:25;;;;;;;9.65;5.95;;;3.50;99.90;;;;;;5005137;28;20053;-83
2022/01/07 07:41:50;;;;;;;11.57;6.38;;;4.10;99.90;;;;;;5004020;28;20519;-82
2022/01/07 07:44:16;;;;;;;9.07;5.50;;;3.60;99.90;;;;;;5020492;28;20057;-83
2022/01/07 07:46:43;;;;;;;11.40;7.43;;;3.70;99.90;;;;;;5002495;28;20401;-83
2022/01/07 07:49:10;;;;;;;9.05;7.03;;;3.60;99.90;;;;;;5022340;28;20116;-83
2022/01/07 07:51:36;;;;;;;10.93;6.43;;;3.60;99.90;;;;;;5024808;28;20103;-83
2022/01/07 07:54:03;;;;;;;8.30;5.40;;;4.50;99.90;;;;;;5020339;28;20045;-83
2022/01/07 07:56:28;;;;;;;10.50;6.40;;;3.60;99.90;;;;;;5008681;28;20064;-83
2022/01/07 07:58:57;;;;;;;9.88;6.32;;;3.30;99.90;;;;;;5028325;28;20046;-83
2022/01/07 08:01:24;;;;;;;13.05;6.53;;;3.90;99.90;;;;;;5024606;28;20508;-83
2022/01/07 08:03:50;;;;;;;16.05;6.95;;;3.30;99.90;;;;;;5023477;28;20056;-83
2022/01/07 08:06:15;;;;;;;11.35;6.75;;;4.10;99.90;;;;;;5024893;28;20129;-84
2022/01/07 08:08:41;;;;;;;12.60;7.32;;;3.70;99.90;;;;;;5027322;28;20080;-84
2022/01/07 08:11:10;;;;;;;12.27;6.90;;;2.90;99.90;;;;;;5027548;28;20080;-83
2022/01/07 08:16:31;;;;;;;12.93;6.70;;;4.60;99.90;;;;;;4973109;28;20039;-83
2022/01/07 08:18:58;;;;;;;13.60;7.78;;;4.70;99.90;;;;;;4957619;28;20046;-84
2022/01/07 08:21:27;;;;;;;11.85;6.45;;;3.80;99.90;;;;;;4957092;28;20062;-83
2022/01/07 08:23:54;;;;;;;13.30;8.15;;;4.30;99.90;;;;;;4966610;28;20035;-83
2022/01/07 08:26:20;;;;;;;13.70;7.97;;;4.10;99.90;;;;;;4966334;28;20062;-83
2022/01/07 08:28:51;;;;;;;13.00;7.43;;;3.90;99.90;;;;;;4972434;28;20054;-83
2022/01/07 08:36:34;;;;;;;14.07;7.45;;;2.80;99.90;;;;;;4957371;28;20051;-83
2022/01/07 08:39:00;;;;;;;18.40;8.13;;;3.50;99.90;;;;;;4966716;28;20149;-83
2022/01/07 08:41:29;;;;;;;19.88;8.60;;;4.90;99.90;;;;;;4957770;28;20043;-82
2022/01/07 08:43:55;;;;;;;18.63;8.55;;;4.10;99.90;;;;;;4956915;28;20054;-88
2022/01/07 08:46:21;;;;;;;16.75;8.40;;;3.30;99.90;;;;;;4965995;28;20394;-83
2022/01/07 08:48:47;;;;;;;12.20;7.25;;;4.10;99.90;;;;;;4966187;28;20110;-82
2022/01/07 08:51:13;;;;;;;15.13;9.70;;;4.10;99.90;;;;;;4956991;28;20034;-82
2022/01/07 08:53:39;;;;;;;13.90;8.05;;;4.00;99.90;;;;;;5016036;28;20495;-82
2022/01/07 08:56:08;;;;;;;18.23;7.75;;;5.60;99.90;;;;;;5024469;28;20112;-82
2022/01/07 08:58:34;;;;;;;28.30;9.60;;;4.20;99.90;;;;;;5026978;28;20088;-81
2022/01/07 09:01:00;;;;;;;16.35;8.25;;;4.00;99.90;;;;;;5026189;28;20460;-83
2022/01/07 09:03:26;;;;;;;16.90;8.90;;;4.90;99.90;;;;;;5023507;28;20397;-82
2022/01/07 09:05:53;;;;;;;14.13;9.13;;;4.30;99.90;;;;;;5028720;28;20049;-83
2022/01/07 09:08:19;;;;;;;17.52;8.77;;;4.50;99.90;;;;;;5023519;28;20037;-83
2022/01/07 09:10:45;;;;;;;16.80;8.85;;;5.20;99.90;;;;;;5023177;28;20124;-84
2022/01/07 09:13:11;;;;;;;11.80;8.10;;;4.60;99.90;;;;;;5023196;28;20038;-82
2022/01/07 09:15:38;;;;;;;17.05;9.00;;;5.20;99.90;;;;;;5008355;28;20053;-80
2022/01/07 09:18:11;;;;;;;14.35;8.52;;;4.10;99.90;;;;;;5026172;28;20069;-82
2022/01/07 09:20:41;;;;;;;22.95;9.60;;;4.40;99.90;;;;;;5025695;28;20393;-81
2022/01/07 09:23:08;;;;;;;17.20;9.50;;;5.40;99.90;;;;;;5026147;28;20482;-81
2022/01/07 09:25:34;;;;;;;19.60;9.52;;;5.50;99.90;;;;;;5025084;28;20041;-81
2022/01/07 09:28:00;;;;;;;19.73;9.48;;;4.50;99.90;;;;;;5008848;28;20411;-81
2022/01/07 09:30:26;;;;;;;15.00;8.45;;;5.30;99.90;;;;;;5026046;28;20454;-83
2022/01/07 09:32:52;;;;;;;19.52;9.60;;;4.80;99.90;;;;;;5023263;28;20049;-81
2022/01/07 09:35:18;;;;;;;17.63;9.95;;;4.60;99.90;;;;;;5023251;28;20184;-82
2022/01/07 09:37:44;;;;;;;16.30;9.23;;;5.30;99.90;;;;;;5025077;28;20037;-87
2022/01/07 09:40:11;;;;;;;15.55;9.60;;;4.50;99.90;;;;;;5030852;28;20040;-81
2022/01/07 09:42:36;;;;;;;18.55;10.15;;;4.80;99.90;;;;;;5007221;28;20049;-82
2022/01/07 09:45:03;;;;;;;20.98;10.23;;;5.20;99.90;;;;;;5023186;28;20180;-81
2022/01/07 09:47:29;;;;;;;17.15;9.18;;;4.70;99.90;;;;;;5022662;28;20456;-82
2022/01/07 09:49:54;;;;;;;17.75;9.43;;;5.30;99.90;;;;;;5025651;28;20042;-82
2022/01/07 09:52:20;;;;;;;16.08;9.68;;;5.20;99.90;;;;;;5025356;28;20443;-81
2022/01/07 09:54:48;;;;;;;20.63;9.02;;;4.80;99.90;;;;;;5023373;28;20207;-82
2022/01/07 09:57:14;;;;;;;24.85;9.45;;;4.80;99.90;;;;;;5006099;28;20041;-82
2022/01/07 09:59:40;;;;;;;14.85;9.73;;;4.60;99.90;;;;;;5026528;28;20046;-83
2022/01/07 10:02:08;;;;;;;17.95;9.27;;;5.70;99.90;;;;;;5024810;28;20088;-81
2022/01/07 10:04:40;;;;;;;20.90;9.80;;;4.90;99.90;;;;;;5022298;28;20096;-81
2022/01/07 10:07:17;;;;;;;15.90;8.43;;;4.90;99.90;;;;;;5022292;28;20088;-80
2022/01/07 10:09:56;;;;;;;14.93;8.95;;;4.90;99.90;;;;;;5024877;28;20046;-80
2022/01/07 10:12:22;;;;;;;14.43;8.85;;;5.30;99.90;;;;;;5024748;28;20481;-80
2022/01/07 10:15:11;;;;;;;17.63;8.23;;;5.20;99.90;;;;;;5007614;28;20045;-81
2022/01/07 10:17:37;;;;;;;17.95;7.45;;;4.80;99.90;;;;;;5022495;28;20480;-83
2022/01/07 10:20:04;;;;;;;13.88;7.78;;;4.70;99.90;;;;;;5027445;28;20048;-82
2022/01/07 10:22:48;;;;;;;22.23;7.75;;;4.70;99.90;;;;;;5032277;28;20041;-82
2022/01/07 10:25:21;;;;;;;12.20;7.03;;;4.70;99.90;;;;;;5024406;28;20037;-83
2022/01/07 10:27:47;;;;;;;11.50;6.38;;;4.70;99.90;;;;;;5021776;28;20053;-83
2022/01/07 10:30:19;;;;;;;18.25;6.78;;;5.30;99.90;;;;;;5026946;28;20522;-83
2022/01/07 10:32:45;;;;;;;11.57;6.65;;;5.30;99.90;;;;;;5023818;28;20045;-83
2022/01/07 10:35:16;;;;;;;11.00;4.88;;;5.70;99.90;;;;;;5003674;28;20499;-82
2022/01/07 10:37:58;;;;;;;7.00;3.50;;;5.40;99.90;;;;;;5022392;28;20547;-82
2022/01/07 10:40:34;;;;;;;4.47;3.00;;;5.20;99.90;;;;;;5024347;28;20499;-83
2022/01/07 10:43:14;;;;;;;4.60;2.35;;;4.70;99.90;;;;;;5010526;28;20748;-83
2022/01/07 10:45:43;;;;;;;6.32;2.75;;;4.80;99.90;;;;;;5025422;28;20045;-81
2022/01/07 10:48:09;;;;;;;4.90;2.20;;;4.60;99.90;;;;;;5024956;28;20041;-84
2022/01/07 10:50:46;;;;;;;4.97;1.90;;;5.40;99.90;;;;;;5006764;28;20038;-84
2022/01/07 10:53:17;;;;;;;3.40;1.77;;;4.60;99.90;;;;;;5024125;28;20070;-83
2022/01/07 10:56:00;;;;;;;3.42;1.98;;;4.70;99.90;;;;;;5021131;28;20056;-84
2022/01/07 10:58:26;;;;;;;2.20;1.40;;;4.50;99.90;;;;;;5021408;28;20522;-86
2022/01/07 11:00:52;;;;;;;6.65;2.05;;;4.50;99.90;;;;;;5007870;28;20042;-88
2022/01/07 11:03:17;;;;;;;6.72;1.58;;;4.60;99.90;;;;;;5001262;28;20063;-82
2022/01/07 11:05:43;;;;;;;2.03;1.08;;;4.60;99.90;;;;;;5026742;28;20049;-83
2022/01/07 11:08:09;;;;;;;4.05;1.17;;;4.70;99.90;;;;;;5020825;28;20060;-85
2022/01/07 11:10:38;;;;;;;5.97;1.30;;;4.70;99.90;;;;;;5021145;28;20034;-84
2022/01/07 11:13:04;;;;;;;2.22;1.10;;;4.80;99.90;;;;;;5022082;28;20129;-84
2022/01/07 11:15:30;;;;;;;5.68;1.17;;;4.80;99.90;;;;;;5024155;28;20050;-86
2022/01/07 11:17:55;;;;;;;5.60;1.25;;;5.50;99.90;;;;;;5013219;28;20041;-84
2022/01/07 11:20:24;;;;;;;3.72;1.00;;;5.80;99.90;;;;;;5048595;28;20080;-83
2022/01/07 11:22:51;;;;;;;5.70;1.10;;;5.00;99.90;;;;;;5031313;28;20041;-83
2022/01/07 11:25:17;;;;;;;6.15;0.98;;;6.10;99.90;;;;;;5020909;28;20053;-83
2022/01/07 11:27:52;;;;;;;2.30;0.65;;;5.00;99.90;;;;;;5020831;28;20050;-84
2022/01/07 11:30:25;;;;;;;7.65;1.20;;;5.00;99.90;;;;;;5020782;28;20041;-84
2022/01/07 11:32:52;;;;;;;4.15;0.90;;;5.30;99.90;;;;;;5020045;28;20101;-84
2022/01/07 11:35:21;;;;;;;3.50;0.90;;;4.60;99.90;;;;;;5022812;28;20045;-83
2022/01/07 11:37:51;;;;;;;2.70;1.00;;;5.00;99.90;;;;;;4990205;28;20045;-89
2022/01/07 11:40:29;;;;;;;4.85;1.10;;;5.80;99.90;;;;;;5004231;28;20073;-82
2022/01/07 11:43:08;;;;;;;3.83;1.27;;;5.80;99.90;;;;;;5013008;28;20107;-82
2022/01/07 11:45:41;;;;;;;4.93;1.77;;;5.20;99.90;;;;;;5012760;28;20195;-83
2022/01/07 11:48:20;;;;;;;9.50;2.15;;;5.20;99.90;;;;;;4995232;28;20096;-83
2022/01/07 11:50:57;;;;;;;7.35;1.58;;;5.20;99.90;;;;;;5012819;28;20575;-83
2022/01/07 11:53:49;;;;;;;9.57;2.80;;;5.30;99.90;;;;;;5012701;28;20050;-83
2022/01/07 11:56:16;;;;;;;6.95;2.40;;;5.30;99.90;;;;;;5016960;28;20041;-81
2022/01/07 11:58:55;;;;;;;7.55;2.67;;;5.30;99.90;;;;;;5014434;28;20056;-80
2022/01/07 12:01:29;;;;;;;6.25;2.00;;;5.30;99.90;;;;;;5012752;28;20685;-81
2022/01/07 12:03:58;;;;;;;8.45;3.33;;;5.70;99.90;;;;;;5012582;28;20050;-82
2022/01/07 12:06:27;;;;;;;14.07;5.43;;;5.70;99.90;;;;;;5012341;28;20057;-80
2022/01/07 12:09:38;;;;;;;8.82;3.45;;;5.50;99.90;;;;;;5012431;28;20049;-81
2022/01/07 12:12:05;;;;;;;6.28;2.65;;;5.60;99.90;;;;;;5009553;28;20062;-81
2022/01/07 12:14:44;;;;;;;8.75;4.03;;;5.70;99.90;;;;;;5002664;28;20131;-82
2022/01/07 12:17:13;;;;;;;9.82;3.72;;;5.70;99.90;;;;;;5032179;28;20045;-81
2022/01/07 12:19:46;;;;;;;9.73;3.58;;;5.80;99.90;;;;;;5032442;28;20052;-81
2022/01/07 12:22:11;;;;;;;7.70;3.22;;;5.80;99.90;;;;;;5031582;28;20073;-82
2022/01/07 12:24:37;;;;;;;6.57;3.15;;;5.90;99.90;;;;;;5032523;28;20045;-81
2022/01/07 12:27:24;;;;;;;7.90;2.53;;;5.80;99.90;;;;;;5031761;28;20132;-81
2022/01/07 12:29:56;;;;;;;4.65;2.80;;;5.80;99.90;;;;;;5031837;28;20492;-80
2022/01/07 12:32:36;;;;;;;8.05;2.70;;;5.80;99.90;;;;;;5013414;28;20052;-83
2022/01/07 12:35:04;;;;;;;11.32;3.10;;;5.80;99.90;;;;;;5032121;28;20096;-81
2022/01/07 12:37:31;;;;;;;10.05;3.53;;;5.70;99.90;;;;;;5032368;28;20128;-82
2022/01/07 12:39:59;;;;;;;7.40;3.60;;;5.70;99.90;;;;;;5014536;28;20045;-82
2022/01/07 12:42:27;;;;;;;11.07;4.15;;;5.80;99.90;;;;;;5010635;28;20045;-81
2022/01/07 12:44:57;;;;;;;13.57;3.92;;;5.80;99.90;;;;;;5015120;28;20075;-82
2022/01/07 12:47:29;;;;;;;6.82;3.38;;;6.30;99.90;;;;;;5018276;28;20084;-82
2022/01/07 12:49:58;;;;;;;6.30;3.53;;;6.00;99.90;;;;;;5004234;28;20038;-83
2022/01/07 12:52:29;;;;;;;8.02;3.70;;;6.30;99.90;;;;;;5020361;28;20068;-82
2022/01/07 12:55:01;;;;;;;7.47;3.30;;;6.50;99.90;;;;;;5035403;28;20092;-82
2022/01/07 12:57:33;;;;;;;12.25;4.22;;;6.10;99.90;;;;;;5035819;28;20103;-81
2022/01/07 13:00:10;;;;;;;9.05;3.20;;;6.10;99.90;;;;;;5035695;28;20045;-81
2022/01/07 13:02:37;;;;;;;6.88;2.63;;;6.00;99.90;;;;;;5035548;28;20052;-80
2022/01/07 13:05:13;;;;;;;4.55;2.80;;;5.90;99.90;;;;;;5035223;28;20045;-81
2022/01/07 13:07:49;;;;;;;8.45;3.15;;;5.90;99.90;;;;;;5034956;28;20488;-80